Pagrindinis puslapis
METAR-TAF:

METAR-TAF

Oro uostai :

Santa Maria di Leuca

Castrignano del Capo, Italija

platuma: 39-49N, ilguma: 018-21E, Aukštis: 104 m

Dabartinis oras

Ataskaita buvo paskelbta 5 valandos ir 50 minutes, ne 17:55 UTC
Vėjas 6 kt iš Vakarų/Šiaurės Vakarų
Temperatūra 14°C
Drėgmė 36%
Slėgis 1023 hPa
Matomumas 10 km arba daugiau
nėra debesų žemiau 1500 m ir nėra kamuolinių lietaus debesų

METAR: LIBY 071755Z 30006KT CAVOK 14/M01 Q1023 RMK SKC QUK / QUL / VIS MAR 15 KM VIS MIN 9999

Laikas: 01:45 (23:45 UTC)


TAF: trūkstamas

Orai ataskaitas ir orų prognozės (METAR, TAF).

turimą stotys yra geltonos ir raudonos taškus žemėlapyje.

Perkelti pele per norėdami pamatyti stoties vardą.

Tada spustelėkite, norėdami matyti oro stebėjimo ir prognozės.

Norėdami pakeisti žemėlapį: spustelėkite ant žalios mygtukų su juodo kryžiaus žemyn,; žalią mygtuką su brūkšneliu, jei norite nutolinti; arba žalių rodyklių gretimoms žemėlapius.


METAR-TAF: